sensor_id;sensor_type;location;lat;lon;timestamp;temperature;humidity
29093;DHT22;16167;48.768;14.984;2022-12-18T00:01:00;-6.30;62.50
29093;DHT22;16167;48.768;14.984;2022-12-18T00:03:32;-6.40;63.70
29093;DHT22;16167;48.768;14.984;2022-12-18T00:06:00;-6.50;62.80
29093;DHT22;16167;48.768;14.984;2022-12-18T00:08:28;-6.60;61.70
29093;DHT22;16167;48.768;14.984;2022-12-18T00:11:00;-6.70;64.00
29093;DHT22;16167;48.768;14.984;2022-12-18T00:13:34;-6.80;64.50
29093;DHT22;16167;48.768;14.984;2022-12-18T00:16:02;-6.90;65.00
29093;DHT22;16167;48.768;14.984;2022-12-18T00:18:30;-7.00;64.50
29093;DHT22;16167;48.768;14.984;2022-12-18T00:20:59;-7.10;64.50
29093;DHT22;16167;48.768;14.984;2022-12-18T00:23:27;-7.20;65.40
29093;DHT22;16167;48.768;14.984;2022-12-18T00:25:54;-7.30;65.70
29093;DHT22;16167;48.768;14.984;2022-12-18T00:28:22;-7.30;67.00
29093;DHT22;16167;48.768;14.984;2022-12-18T00:30:52;-7.40;66.50
29093;DHT22;16167;48.768;14.984;2022-12-18T00:33:26;-7.50;66.90
29093;DHT22;16167;48.768;14.984;2022-12-18T00:35:54;-7.50;70.30
29093;DHT22;16167;48.768;14.984;2022-12-18T00:38:22;-7.60;72.80
29093;DHT22;16167;48.768;14.984;2022-12-18T00:40:50;-7.70;71.50
29093;DHT22;16167;48.768;14.984;2022-12-18T00:43:18;-7.70;75.20
29093;DHT22;16167;48.768;14.984;2022-12-18T00:45:45;-7.70;77.40
29093;DHT22;16167;48.768;14.984;2022-12-18T00:48:14;-7.80;75.70
29093;DHT22;16167;48.768;14.984;2022-12-18T00:50:42;-7.80;76.40
29093;DHT22;16167;48.768;14.984;2022-12-18T00:53:10;-7.90;77.20
29093;DHT22;16167;48.768;14.984;2022-12-18T00:55:38;-7.90;79.30
29093;DHT22;16167;48.768;14.984;2022-12-18T00:58:06;-7.90;82.70
29093;DHT22;16167;48.768;14.984;2022-12-18T01:00:34;-7.90;83.70
29093;DHT22;16167;48.768;14.984;2022-12-18T01:03:02;-7.90;81.90
29093;DHT22;16167;48.768;14.984;2022-12-18T01:05:32;-7.90;81.10
29093;DHT22;16167;48.768;14.984;2022-12-18T01:08:00;-7.90;81.10
29093;DHT22;16167;48.768;14.984;2022-12-18T01:10:28;-7.90;78.00
29093;DHT22;16167;48.768;14.984;2022-12-18T01:12:55;-8.00;75.60
29093;DHT22;16167;48.768;14.984;2022-12-18T01:15:23;-8.00;74.20
29093;DHT22;16167;48.768;14.984;2022-12-18T01:17:51;-8.00;73.30
29093;DHT22;16167;48.768;14.984;2022-12-18T01:20:19;-8.00;71.90
29093;DHT22;16167;48.768;14.984;2022-12-18T01:22:48;-8.00;70.40
29093;DHT22;16167;48.768;14.984;2022-12-18T01:25:16;-8.10;67.70
29093;DHT22;16167;48.768;14.984;2022-12-18T01:27:44;-8.20;67.80
29093;DHT22;16167;48.768;14.984;2022-12-18T01:30:12;-8.20;69.70
29093;DHT22;16167;48.768;14.984;2022-12-18T01:32:40;-8.30;66.00
29093;DHT22;16167;48.768;14.984;2022-12-18T01:35:08;-8.40;66.00
29093;DHT22;16167;48.768;14.984;2022-12-18T01:37:36;-8.40;62.40
29093;DHT22;16167;48.768;14.984;2022-12-18T01:40:06;-8.60;57.90
29093;DHT22;16167;48.768;14.984;2022-12-18T01:42:34;-8.60;59.10
29093;DHT22;16167;48.768;14.984;2022-12-18T01:45:03;-8.70;58.20
29093;DHT22;16167;48.768;14.984;2022-12-18T01:47:33;-8.80;58.90
29093;DHT22;16167;48.768;14.984;2022-12-18T01:50:04;-8.80;58.60
29093;DHT22;16167;48.768;14.984;2022-12-18T01:52:32;-8.80;61.70
29093;DHT22;16167;48.768;14.984;2022-12-18T01:55:01;-8.80;65.90
29093;DHT22;16167;48.768;14.984;2022-12-18T01:57:30;-8.80;64.50
29093;DHT22;16167;48.768;14.984;2022-12-18T02:00:00;-8.80;62.60
29093;DHT22;16167;48.768;14.984;2022-12-18T02:02:28;-8.80;60.40
29093;DHT22;16167;48.768;14.984;2022-12-18T02:04:57;-8.90;54.10
29093;DHT22;16167;48.768;14.984;2022-12-18T02:07:28;-9.00;46.20
29093;DHT22;16167;48.768;14.984;2022-12-18T02:10:00;-9.10;48.30
29093;DHT22;16167;48.768;14.984;2022-12-18T02:12:33;-9.20;52.20
29093;DHT22;16167;48.768;14.984;2022-12-18T02:15:05;-9.30;53.40
29093;DHT22;16167;48.768;14.984;2022-12-18T02:17:35;-9.40;52.50
29093;DHT22;16167;48.768;14.984;2022-12-18T02:20:06;-9.40;54.30
29093;DHT22;16167;48.768;14.984;2022-12-18T02:22:39;-9.40;54.70
29093;DHT22;16167;48.768;14.984;2022-12-18T02:25:13;-9.50;54.40
29093;DHT22;16167;48.768;14.984;2022-12-18T02:27:44;-9.60;53.20
29093;DHT22;16167;48.768;14.984;2022-12-18T02:30:13;-9.70;51.90
29093;DHT22;16167;48.768;14.984;2022-12-18T02:32:43;-9.70;51.50
29093;DHT22;16167;48.768;14.984;2022-12-18T02:35:13;-9.70;56.60
29093;DHT22;16167;48.768;14.984;2022-12-18T02:37:43;-9.60;59.70
29093;DHT22;16167;48.768;14.984;2022-12-18T02:40:12;-9.50;56.60
29093;DHT22;16167;48.768;14.984;2022-12-18T02:42:40;-9.50;52.70
29093;DHT22;16167;48.768;14.984;2022-12-18T02:45:10;-9.50;51.60
29093;DHT22;16167;48.768;14.984;2022-12-18T02:47:39;-9.70;47.60
29093;DHT22;16167;48.768;14.984;2022-12-18T02:50:10;-9.70;44.70
29093;DHT22;16167;48.768;14.984;2022-12-18T02:52:41;-9.80;43.90
29093;DHT22;16167;48.768;14.984;2022-12-18T02:55:17;-9.90;45.60
29093;DHT22;16167;48.768;14.984;2022-12-18T02:57:48;-10.00;48.60
29093;DHT22;16167;48.768;14.984;2022-12-18T03:00:19;-10.10;48.90
29093;DHT22;16167;48.768;14.984;2022-12-18T03:02:48;-10.10;47.90
29093;DHT22;16167;48.768;14.984;2022-12-18T03:05:22;-10.20;53.90
29093;DHT22;16167;48.768;14.984;2022-12-18T03:07:52;-10.20;51.80
29093;DHT22;16167;48.768;14.984;2022-12-18T03:10:23;-10.30;52.60
29093;DHT22;16167;48.768;14.984;2022-12-18T03:12:52;-10.30;51.60
29093;DHT22;16167;48.768;14.984;2022-12-18T03:15:24;-10.30;52.80
29093;DHT22;16167;48.768;14.984;2022-12-18T03:17:55;-10.30;52.50
29093;DHT22;16167;48.768;14.984;2022-12-18T03:20:25;-10.40;53.60
29093;DHT22;16167;48.768;14.984;2022-12-18T03:22:53;-10.30;53.90
29093;DHT22;16167;48.768;14.984;2022-12-18T03:25:23;-10.30;54.70
29093;DHT22;16167;48.768;14.984;2022-12-18T03:27:54;-10.40;50.90
29093;DHT22;16167;48.768;14.984;2022-12-18T03:30:24;-10.40;46.50
29093;DHT22;16167;48.768;14.984;2022-12-18T03:32:56;-10.40;44.20
29093;DHT22;16167;48.768;14.984;2022-12-18T03:35:29;-10.50;42.70
29093;DHT22;16167;48.768;14.984;2022-12-18T03:37:59;-10.50;42.00
29093;DHT22;16167;48.768;14.984;2022-12-18T03:40:29;-10.60;45.00
29093;DHT22;16167;48.768;14.984;2022-12-18T03:42:59;-10.60;46.20
29093;DHT22;16167;48.768;14.984;2022-12-18T03:45:31;-10.70;45.30
29093;DHT22;16167;48.768;14.984;2022-12-18T03:48:01;-10.70;43.70
29093;DHT22;16167;48.768;14.984;2022-12-18T03:50:34;-10.80;43.90
29093;DHT22;16167;48.768;14.984;2022-12-18T03:53:06;-10.80;45.60
29093;DHT22;16167;48.768;14.984;2022-12-18T03:55:36;-10.80;44.80
29093;DHT22;16167;48.768;14.984;2022-12-18T03:58:04;-10.90;42.90
29093;DHT22;16167;48.768;14.984;2022-12-18T04:00:34;-10.90;39.50
29093;DHT22;16167;48.768;14.984;2022-12-18T04:03:02;-11.00;37.30
29093;DHT22;16167;48.768;14.984;2022-12-18T04:05:32;-11.10;39.00
29093;DHT22;16167;48.768;14.984;2022-12-18T04:08:01;-11.10;41.00
29093;DHT22;16167;48.768;14.984;2022-12-18T04:10:29;-11.10;42.50
29093;DHT22;16167;48.768;14.984;2022-12-18T04:12:57;-11.20;47.00
29093;DHT22;16167;48.768;14.984;2022-12-18T04:15:25;-11.10;50.10
29093;DHT22;16167;48.768;14.984;2022-12-18T04:17:54;-11.10;50.50
29093;DHT22;16167;48.768;14.984;2022-12-18T04:20:22;-11.20;50.20
29093;DHT22;16167;48.768;14.984;2022-12-18T04:22:50;-11.20;47.10
29093;DHT22;16167;48.768;14.984;2022-12-18T04:25:18;-11.30;44.30
29093;DHT22;16167;48.768;14.984;2022-12-18T04:27:46;-11.30;43.60
29093;DHT22;16167;48.768;14.984;2022-12-18T04:30:14;-11.30;43.50
29093;DHT22;16167;48.768;14.984;2022-12-18T04:32:41;-11.30;42.90
29093;DHT22;16167;48.768;14.984;2022-12-18T04:35:18;-11.30;46.80
29093;DHT22;16167;48.768;14.984;2022-12-18T04:37:46;-11.40;44.30
29093;DHT22;16167;48.768;14.984;2022-12-18T04:40:14;-11.40;41.60
29093;DHT22;16167;48.768;14.984;2022-12-18T04:42:42;-11.50;37.10
29093;DHT22;16167;48.768;14.984;2022-12-18T04:45:10;-11.50;39.00
29093;DHT22;16167;48.768;14.984;2022-12-18T04:47:37;-11.50;37.40
29093;DHT22;16167;48.768;14.984;2022-12-18T04:50:06;-11.50;34.20
29093;DHT22;16167;48.768;14.984;2022-12-18T04:52:35;-11.50;35.00
29093;DHT22;16167;48.768;14.984;2022-12-18T04:55:03;-11.50;32.00
29093;DHT22;16167;48.768;14.984;2022-12-18T04:57:31;-11.50;30.60
29093;DHT22;16167;48.768;14.984;2022-12-18T04:59:58;-11.60;31.50
29093;DHT22;16167;48.768;14.984;2022-12-18T05:02:26;-11.60;32.50
29093;DHT22;16167;48.768;14.984;2022-12-18T05:04:54;-11.50;36.60
29093;DHT22;16167;48.768;14.984;2022-12-18T05:07:22;-11.40;33.30
29093;DHT22;16167;48.768;14.984;2022-12-18T05:09:51;-11.40;27.10
29093;DHT22;16167;48.768;14.984;2022-12-18T05:12:19;-11.50;25.40
29093;DHT22;16167;48.768;14.984;2022-12-18T05:14:47;-11.50;22.90
29093;DHT22;16167;48.768;14.984;2022-12-18T05:17:15;-11.50;21.10
29093;DHT22;16167;48.768;14.984;2022-12-18T05:19:43;-11.50;18.90
29093;DHT22;16167;48.768;14.984;2022-12-18T05:22:11;-11.60;16.20
29093;DHT22;16167;48.768;14.984;2022-12-18T05:24:39;-11.60;15.70
29093;DHT22;16167;48.768;14.984;2022-12-18T05:27:08;-11.60;14.40
29093;DHT22;16167;48.768;14.984;2022-12-18T05:29:36;-11.70;13.40
29093;DHT22;16167;48.768;14.984;2022-12-18T05:32:04;-11.70;12.60
29093;DHT22;16167;48.768;14.984;2022-12-18T05:34:32;-11.80;16.60
29093;DHT22;16167;48.768;14.984;2022-12-18T05:37:00;-11.90;18.90
29093;DHT22;16167;48.768;14.984;2022-12-18T05:39:28;-12.00;18.70
29093;DHT22;16167;48.768;14.984;2022-12-18T05:41:55;-12.00;21.20
29093;DHT22;16167;48.768;14.984;2022-12-18T05:44:25;-12.10;25.40
29093;DHT22;16167;48.768;14.984;2022-12-18T05:46:53;-12.10;30.30
29093;DHT22;16167;48.768;14.984;2022-12-18T05:49:21;-12.10;33.40
29093;DHT22;16167;48.768;14.984;2022-12-18T05:51:48;-12.10;34.50
29093;DHT22;16167;48.768;14.984;2022-12-18T05:54:16;-12.10;35.70
29093;DHT22;16167;48.768;14.984;2022-12-18T05:56:44;-12.00;38.40
29093;DHT22;16167;48.768;14.984;2022-12-18T05:59:14;-12.00;33.20
29093;DHT22;16167;48.768;14.984;2022-12-18T06:01:43;-12.00;30.70
29093;DHT22;16167;48.768;14.984;2022-12-18T06:04:11;-12.00;30.10
29093;DHT22;16167;48.768;14.984;2022-12-18T06:06:40;-12.10;30.00
29093;DHT22;16167;48.768;14.984;2022-12-18T06:09:08;-12.10;33.90
29093;DHT22;16167;48.768;14.984;2022-12-18T06:11:36;-12.10;31.30
29093;DHT22;16167;48.768;14.984;2022-12-18T06:14:04;-12.10;30.80
29093;DHT22;16167;48.768;14.984;2022-12-18T06:16:32;-12.10;29.70
29093;DHT22;16167;48.768;14.984;2022-12-18T06:19:02;-12.20;29.50
29093;DHT22;16167;48.768;14.984;2022-12-18T06:21:30;-12.10;27.80
29093;DHT22;16167;48.768;14.984;2022-12-18T06:23:59;-12.20;29.50
29093;DHT22;16167;48.768;14.984;2022-12-18T06:26:27;-12.10;30.70
29093;DHT22;16167;48.768;14.984;2022-12-18T06:28:55;-12.10;28.00
29093;DHT22;16167;48.768;14.984;2022-12-18T06:31:24;-12.10;26.20
29093;DHT22;16167;48.768;14.984;2022-12-18T06:33:52;-12.00;21.70
29093;DHT22;16167;48.768;14.984;2022-12-18T06:36:21;-12.00;18.20
29093;DHT22;16167;48.768;14.984;2022-12-18T06:38:49;-11.90;13.60
29093;DHT22;16167;48.768;14.984;2022-12-18T06:41:18;-12.00;11.70
29093;DHT22;16167;48.768;14.984;2022-12-18T06:43:46;-12.10;12.60
29093;DHT22;16167;48.768;14.984;2022-12-18T06:46:14;-12.20;10.40
29093;DHT22;16167;48.768;14.984;2022-12-18T06:48:42;-12.20;14.20
29093;DHT22;16167;48.768;14.984;2022-12-18T06:51:10;-12.30;12.70
29093;DHT22;16167;48.768;14.984;2022-12-18T06:53:39;-12.30;14.90
29093;DHT22;16167;48.768;14.984;2022-12-18T06:56:07;-12.30;15.40
29093;DHT22;16167;48.768;14.984;2022-12-18T06:58:36;-12.20;14.30
29093;DHT22;16167;48.768;14.984;2022-12-18T07:01:05;-12.20;13.30
29093;DHT22;16167;48.768;14.984;2022-12-18T07:03:33;-12.20;11.00
29093;DHT22;16167;48.768;14.984;2022-12-18T07:06:02;-12.20;9.90
29093;DHT22;16167;48.768;14.984;2022-12-18T07:08:30;-12.20;10.80
29093;DHT22;16167;48.768;14.984;2022-12-18T07:11:02;-12.20;12.30
29093;DHT22;16167;48.768;14.984;2022-12-18T07:13:30;-12.20;9.50
29093;DHT22;16167;48.768;14.984;2022-12-18T07:16:03;-12.30;8.10
29093;DHT22;16167;48.768;14.984;2022-12-18T07:18:38;-12.20;8.40
29093;DHT22;16167;48.768;14.984;2022-12-18T07:21:06;-12.20;16.50
29093;DHT22;16167;48.768;14.984;2022-12-18T07:23:35;-12.10;16.00
29093;DHT22;16167;48.768;14.984;2022-12-18T07:26:05;-12.10;14.20
29093;DHT22;16167;48.768;14.984;2022-12-18T07:28:33;-12.00;14.40
29093;DHT22;16167;48.768;14.984;2022-12-18T07:31:02;-12.00;13.00
29093;DHT22;16167;48.768;14.984;2022-12-18T07:33:30;-11.90;12.20
29093;DHT22;16167;48.768;14.984;2022-12-18T07:35:59;-11.90;10.60
29093;DHT22;16167;48.768;14.984;2022-12-18T07:38:27;-11.90;9.60
29093;DHT22;16167;48.768;14.984;2022-12-18T07:40:59;-11.80;7.20
29093;DHT22;16167;48.768;14.984;2022-12-18T07:43:28;-11.70;13.00
29093;DHT22;16167;48.768;14.984;2022-12-18T07:45:56;-11.70;9.00
29093;DHT22;16167;48.768;14.984;2022-12-18T07:48:24;-11.70;1.00
29093;DHT22;16167;48.768;14.984;2022-12-18T07:50:52;-11.60;4.50
29093;DHT22;16167;48.768;14.984;2022-12-18T07:53:20;-11.60;7.70
29093;DHT22;16167;48.768;14.984;2022-12-18T07:55:48;-11.50;5.20
29093;DHT22;16167;48.768;14.984;2022-12-18T07:58:37;-11.50;5.50
29093;DHT22;16167;48.768;14.984;2022-12-18T08:01:05;-11.40;1.00
29093;DHT22;16167;48.768;14.984;2022-12-18T08:03:33;-11.30;2.00
29093;DHT22;16167;48.768;14.984;2022-12-18T08:06:02;-11.20;1.00
29093;DHT22;16167;48.768;14.984;2022-12-18T08:08:30;-11.20;1.00
29093;DHT22;16167;48.768;14.984;2022-12-18T08:10:58;-11.10;1.00
29093;DHT22;16167;48.768;14.984;2022-12-18T08:13:26;-11.00;1.00
29093;DHT22;16167;48.768;14.984;2022-12-18T08:15:59;-10.90;1.00
29093;DHT22;16167;48.768;14.984;2022-12-18T08:18:27;-10.80;1.00
29093;DHT22;16167;48.768;14.984;2022-12-18T08:20:55;-10.60;1.00
29093;DHT22;16167;48.768;14.984;2022-12-18T08:23:23;-10.50;1.00
29093;DHT22;16167;48.768;14.984;2022-12-18T08:25:54;-10.40;1.00
29093;DHT22;16167;48.768;14.984;2022-12-18T08:28:22;-10.30;1.00
29093;DHT22;16167;48.768;14.984;2022-12-18T08:30:51;-10.20;1.00
29093;DHT22;16167;48.768;14.984;2022-12-18T08:33:20;-10.10;1.00
29093;DHT22;16167;48.768;14.984;2022-12-18T08:35:48;-10.10;1.00
29093;DHT22;16167;48.768;14.984;2022-12-18T08:38:16;-10.10;1.00
29093;DHT22;16167;48.768;14.984;2022-12-18T08:40:44;-9.90;1.00
29093;DHT22;16167;48.768;14.984;2022-12-18T08:43:12;-9.90;1.00
29093;DHT22;16167;48.768;14.984;2022-12-18T08:45:57;-9.80;1.00
29093;DHT22;16167;48.768;14.984;2022-12-18T08:48:26;-9.70;1.00
29093;DHT22;16167;48.768;14.984;2022-12-18T08:50:54;-9.50;1.00
29093;DHT22;16167;48.768;14.984;2022-12-18T08:53:22;-9.40;1.00
29093;DHT22;16167;48.768;14.984;2022-12-18T08:55:50;-9.30;1.00
29093;DHT22;16167;48.768;14.984;2022-12-18T08:58:18;-9.20;1.00
29093;DHT22;16167;48.768;14.984;2022-12-18T09:00:46;-9.10;1.00
29093;DHT22;16167;48.768;14.984;2022-12-18T09:03:14;-8.90;1.00
29093;DHT22;16167;48.768;14.984;2022-12-18T09:05:44;-8.70;7.10
29093;DHT22;16167;48.768;14.984;2022-12-18T09:08:13;-8.50;14.10
29093;DHT22;16167;48.768;14.984;2022-12-18T09:10:41;-8.40;18.00
29093;DHT22;16167;48.768;14.984;2022-12-18T09:13:10;-8.30;21.10
29093;DHT22;16167;48.768;14.984;2022-12-18T09:15:40;-8.10;14.60
29093;DHT22;16167;48.768;14.984;2022-12-18T09:18:07;-7.90;13.60
29093;DHT22;16167;48.768;14.984;2022-12-18T09:20:35;-7.80;13.80
29093;DHT22;16167;48.768;14.984;2022-12-18T09:23:05;-7.70;14.40
29093;DHT22;16167;48.768;14.984;2022-12-18T09:25:33;-7.50;14.00
29093;DHT22;16167;48.768;14.984;2022-12-18T09:28:02;-7.30;14.10
29093;DHT22;16167;48.768;14.984;2022-12-18T09:30:31;-7.00;11.30
29093;DHT22;16167;48.768;14.984;2022-12-18T09:33:01;-6.70;3.20
29093;DHT22;16167;48.768;14.984;2022-12-18T09:35:29;-6.50;1.00
29093;DHT22;16167;48.768;14.984;2022-12-18T09:37:57;-6.20;1.00
29093;DHT22;16167;48.768;14.984;2022-12-18T09:40:26;-6.10;1.00
29093;DHT22;16167;48.768;14.984;2022-12-18T09:42:57;-5.90;1.00
29093;DHT22;16167;48.768;14.984;2022-12-18T09:45:25;-5.80;1.00
29093;DHT22;16167;48.768;14.984;2022-12-18T09:47:53;-5.60;1.00
29093;DHT22;16167;48.768;14.984;2022-12-18T09:50:31;-5.40;1.00
29093;DHT22;16167;48.768;14.984;2022-12-18T09:53:02;-5.30;1.00
29093;DHT22;16167;48.768;14.984;2022-12-18T09:55:36;-5.20;1.00
29093;DHT22;16167;48.768;14.984;2022-12-18T09:58:05;-5.10;1.00
29093;DHT22;16167;48.768;14.984;2022-12-18T10:00:34;-5.00;1.00
29093;DHT22;16167;48.768;14.984;2022-12-18T10:03:03;-4.90;1.00
29093;DHT22;16167;48.768;14.984;2022-12-18T10:05:37;-4.90;1.00
29093;DHT22;16167;48.768;14.984;2022-12-18T10:08:08;-4.70;1.00
29093;DHT22;16167;48.768;14.984;2022-12-18T10:10:41;-4.70;1.00
29093;DHT22;16167;48.768;14.984;2022-12-18T10:13:15;-4.60;1.00
29093;DHT22;16167;48.768;14.984;2022-12-18T10:15:51;-4.60;1.00
29093;DHT22;16167;48.768;14.984;2022-12-18T10:18:25;-4.50;1.00
29093;DHT22;16167;48.768;14.984;2022-12-18T10:20:56;-4.40;1.00
29093;DHT22;16167;48.768;14.984;2022-12-18T10:23:28;-4.40;1.00
29093;DHT22;16167;48.768;14.984;2022-12-18T10:26:00;-4.40;1.00
29093;DHT22;16167;48.768;14.984;2022-12-18T10:28:30;-4.30;1.00
29093;DHT22;16167;48.768;14.984;2022-12-18T10:30:58;-4.30;1.00
29093;DHT22;16167;48.768;14.984;2022-12-18T10:33:28;-4.20;1.00
29093;DHT22;16167;48.768;14.984;2022-12-18T10:35:56;-4.20;1.00
29093;DHT22;16167;48.768;14.984;2022-12-18T10:38:24;-4.10;1.00
29093;DHT22;16167;48.768;14.984;2022-12-18T10:40:53;-4.00;1.00
29093;DHT22;16167;48.768;14.984;2022-12-18T10:43:24;-3.90;1.00
29093;DHT22;16167;48.768;14.984;2022-12-18T10:45:59;-3.80;1.00
29093;DHT22;16167;48.768;14.984;2022-12-18T10:48:28;-3.80;1.00
29093;DHT22;16167;48.768;14.984;2022-12-18T10:50:57;-3.80;1.00
29093;DHT22;16167;48.768;14.984;2022-12-18T10:53:41;-3.60;1.00
29093;DHT22;16167;48.768;14.984;2022-12-18T10:56:10;-3.60;1.00
29093;DHT22;16167;48.768;14.984;2022-12-18T10:58:39;-3.60;1.00
29093;DHT22;16167;48.768;14.984;2022-12-18T11:01:09;-3.60;1.00
29093;DHT22;16167;48.768;14.984;2022-12-18T11:03:37;-3.60;1.00
29093;DHT22;16167;48.768;14.984;2022-12-18T11:06:07;-3.50;1.00
29093;DHT22;16167;48.768;14.984;2022-12-18T11:08:35;-3.50;1.00
29093;DHT22;16167;48.768;14.984;2022-12-18T11:11:04;-3.40;1.00
29093;DHT22;16167;48.768;14.984;2022-12-18T11:13:34;-3.30;1.00
29093;DHT22;16167;48.768;14.984;2022-12-18T11:16:03;-3.40;1.00
29093;DHT22;16167;48.768;14.984;2022-12-18T11:18:32;-3.50;1.00
29093;DHT22;16167;48.768;14.984;2022-12-18T11:21:04;-3.50;1.00
29093;DHT22;16167;48.768;14.984;2022-12-18T11:23:34;-3.50;1.00
29093;DHT22;16167;48.768;14.984;2022-12-18T11:26:03;-3.50;1.00
29093;DHT22;16167;48.768;14.984;2022-12-18T11:28:35;-3.60;1.00
29093;DHT22;16167;48.768;14.984;2022-12-18T11:31:16;-3.50;1.00
29093;DHT22;16167;48.768;14.984;2022-12-18T11:33:45;-3.40;1.00
29093;DHT22;16167;48.768;14.984;2022-12-18T11:36:39;-3.50;1.00
29093;DHT22;16167;48.768;14.984;2022-12-18T11:39:10;-3.40;1.00
29093;DHT22;16167;48.768;14.984;2022-12-18T11:41:41;-3.40;1.00
29093;DHT22;16167;48.768;14.984;2022-12-18T11:44:31;-3.40;1.00
29093;DHT22;16167;48.768;14.984;2022-12-18T11:47:05;-3.30;1.00
29093;DHT22;16167;48.768;14.984;2022-12-18T11:49:36;-3.40;1.00
29093;DHT22;16167;48.768;14.984;2022-12-18T11:52:08;-3.40;1.00
29093;DHT22;16167;48.768;14.984;2022-12-18T11:54:36;-3.40;1.00
29093;DHT22;16167;48.768;14.984;2022-12-18T11:57:06;-3.50;1.00
29093;DHT22;16167;48.768;14.984;2022-12-18T11:59:36;-3.40;1.00
29093;DHT22;16167;48.768;14.984;2022-12-18T12:02:14;-3.40;1.00
29093;DHT22;16167;48.768;14.984;2022-12-18T12:04:50;-3.30;1.00
29093;DHT22;16167;48.768;14.984;2022-12-18T12:07:23;-3.20;1.00
29093;DHT22;16167;48.768;14.984;2022-12-18T12:09:55;-3.20;1.00
29093;DHT22;16167;48.768;14.984;2022-12-18T12:12:27;-3.20;1.00
29093;DHT22;16167;48.768;14.984;2022-12-18T12:15:17;-3.20;1.00
29093;DHT22;16167;48.768;14.984;2022-12-18T12:17:50;-3.30;1.00
29093;DHT22;16167;48.768;14.984;2022-12-18T12:20:21;-3.30;1.00
29093;DHT22;16167;48.768;14.984;2022-12-18T12:22:52;-3.30;1.00
29093;DHT22;16167;48.768;14.984;2022-12-18T12:25:26;-3.20;1.00
29093;DHT22;16167;48.768;14.984;2022-12-18T12:27:59;-3.20;1.00
29093;DHT22;16167;48.768;14.984;2022-12-18T12:30:33;-3.20;1.00
29093;DHT22;16167;48.768;14.984;2022-12-18T12:33:08;-3.10;1.00
29093;DHT22;16167;48.768;14.984;2022-12-18T12:35:43;-3.20;1.00
29093;DHT22;16167;48.768;14.984;2022-12-18T12:38:13;-3.20;1.00
29093;DHT22;16167;48.768;14.984;2022-12-18T12:40:42;-3.20;1.00
29093;DHT22;16167;48.768;14.984;2022-12-18T12:43:26;-3.20;1.00
29093;DHT22;16167;48.768;14.984;2022-12-18T12:45:55;-3.30;1.00
29093;DHT22;16167;48.768;14.984;2022-12-18T12:48:31;-3.30;1.00
29093;DHT22;16167;48.768;14.984;2022-12-18T12:51:00;-3.40;1.00
29093;DHT22;16167;48.768;14.984;2022-12-18T12:53:30;-3.40;1.00
29093;DHT22;16167;48.768;14.984;2022-12-18T12:55:58;-3.40;1.00
29093;DHT22;16167;48.768;14.984;2022-12-18T12:58:29;-3.40;1.00
29093;DHT22;16167;48.768;14.984;2022-12-18T13:01:01;-3.40;1.00
29093;DHT22;16167;48.768;14.984;2022-12-18T13:03:36;-3.50;1.00
29093;DHT22;16167;48.768;14.984;2022-12-18T13:06:09;-3.50;1.00
29093;DHT22;16167;48.768;14.984;2022-12-18T13:08:51;-3.50;1.00
29093;DHT22;16167;48.768;14.984;2022-12-18T13:11:30;-3.50;1.00
29093;DHT22;16167;48.768;14.984;2022-12-18T13:14:26;-3.60;1.00
29093;DHT22;16167;48.768;14.984;2022-12-18T13:17:14;-3.60;1.00
29093;DHT22;16167;48.768;14.984;2022-12-18T13:19:44;-3.60;1.00
29093;DHT22;16167;48.768;14.984;2022-12-18T13:22:21;-3.60;1.00
29093;DHT22;16167;48.768;14.984;2022-12-18T13:24:49;-3.60;1.00
29093;DHT22;16167;48.768;14.984;2022-12-18T13:32:55;-3.80;1.00
29093;DHT22;16167;48.768;14.984;2022-12-18T13:35:52;-3.80;1.00
29093;DHT22;16167;48.768;14.984;2022-12-18T13:38:21;-3.80;1.00
29093;DHT22;16167;48.768;14.984;2022-12-18T13:40:56;-3.80;1.00
29093;DHT22;16167;48.768;14.984;2022-12-18T13:43:28;-3.80;1.00
29093;DHT22;16167;48.768;14.984;2022-12-18T13:46:01;-3.80;1.00
29093;DHT22;16167;48.768;14.984;2022-12-18T13:48:30;-3.90;1.00
29093;DHT22;16167;48.768;14.984;2022-12-18T13:51:02;-3.90;1.00
29093;DHT22;16167;48.768;14.984;2022-12-18T13:53:33;-4.00;1.00
29093;DHT22;16167;48.768;14.984;2022-12-18T13:56:01;-4.00;1.00
29093;DHT22;16167;48.768;14.984;2022-12-18T13:58:30;-4.00;1.00
29093;DHT22;16167;48.768;14.984;2022-12-18T14:00:58;-4.10;1.00
29093;DHT22;16167;48.768;14.984;2022-12-18T14:03:28;-4.10;1.00
29093;DHT22;16167;48.768;14.984;2022-12-18T14:06:03;-4.10;1.00
29093;DHT22;16167;48.768;14.984;2022-12-18T14:08:34;-4.20;1.00
29093;DHT22;16167;48.768;14.984;2022-12-18T14:11:04;-4.30;1.00
29093;DHT22;16167;48.768;14.984;2022-12-18T14:13:35;-4.20;1.00
29093;DHT22;16167;48.768;14.984;2022-12-18T14:16:04;-4.30;1.00
29093;DHT22;16167;48.768;14.984;2022-12-18T14:18:36;-4.40;1.00
29093;DHT22;16167;48.768;14.984;2022-12-18T14:21:14;-4.40;1.00
29093;DHT22;16167;48.768;14.984;2022-12-18T14:23:43;-4.40;1.00
29093;DHT22;16167;48.768;14.984;2022-12-18T14:26:22;-4.50;1.00
29093;DHT22;16167;48.768;14.984;2022-12-18T14:28:50;-4.50;2.10
29093;DHT22;16167;48.768;14.984;2022-12-18T14:31:20;-4.60;3.80
29093;DHT22;16167;48.768;14.984;2022-12-18T14:33:48;-4.60;4.00
29093;DHT22;16167;48.768;14.984;2022-12-18T14:36:19;-4.60;2.90
29093;DHT22;16167;48.768;14.984;2022-12-18T14:38:49;-4.70;1.00
29093;DHT22;16167;48.768;14.984;2022-12-18T14:41:18;-4.70;1.00
29093;DHT22;16167;48.768;14.984;2022-12-18T14:43:47;-4.80;1.00
29093;DHT22;16167;48.768;14.984;2022-12-18T14:46:26;-4.90;4.60
29093;DHT22;16167;48.768;14.984;2022-12-18T14:48:56;-5.00;7.70
29093;DHT22;16167;48.768;14.984;2022-12-18T14:51:26;-5.00;9.50
29093;DHT22;16167;48.768;14.984;2022-12-18T14:53:54;-5.10;9.80
29093;DHT22;16167;48.768;14.984;2022-12-18T14:56:23;-5.10;13.30
29093;DHT22;16167;48.768;14.984;2022-12-18T14:58:53;-5.20;18.30
29093;DHT22;16167;48.768;14.984;2022-12-18T15:01:22;-5.20;21.00
29093;DHT22;16167;48.768;14.984;2022-12-18T15:03:51;-5.20;22.20
29093;DHT22;16167;48.768;14.984;2022-12-18T15:06:24;-5.30;23.40
29093;DHT22;16167;48.768;14.984;2022-12-18T15:08:54;-5.30;23.00
29093;DHT22;16167;48.768;14.984;2022-12-18T15:11:26;-5.30;26.40
29093;DHT22;16167;48.768;14.984;2022-12-18T15:13:54;-5.40;25.40
29093;DHT22;16167;48.768;14.984;2022-12-18T15:16:22;-5.50;25.60
29093;DHT22;16167;48.768;14.984;2022-12-18T15:18:49;-5.50;23.50
29093;DHT22;16167;48.768;14.984;2022-12-18T15:21:18;-5.50;25.20
29093;DHT22;16167;48.768;14.984;2022-12-18T15:23:47;-5.50;27.00
29093;DHT22;16167;48.768;14.984;2022-12-18T15:26:17;-5.50;25.30
29093;DHT22;16167;48.768;14.984;2022-12-18T15:28:45;-5.60;23.40
29093;DHT22;16167;48.768;14.984;2022-12-18T15:31:21;-5.60;25.80
29093;DHT22;16167;48.768;14.984;2022-12-18T15:34:00;-5.60;25.00
29093;DHT22;16167;48.768;14.984;2022-12-18T15:36:29;-5.60;24.20
29093;DHT22;16167;48.768;14.984;2022-12-18T15:38:57;-5.70;26.10
29093;DHT22;16167;48.768;14.984;2022-12-18T15:41:33;-5.70;25.60